sensor_id;sensor_type;location;lat;lon;timestamp;pressure;altitude;pressure_sealevel;temperature;humidity
65175;BME280;51761;42.126;24.752;2023-02-28T00:00:20;100113.44;;;11.17;71.45
65175;BME280;51761;42.126;24.752;2023-02-28T00:02:46;100115.03;;;11.15;71.67
65175;BME280;51761;42.126;24.752;2023-02-28T00:05:14;100123.09;;;11.09;71.99
65175;BME280;51761;42.126;24.752;2023-02-28T00:07:40;100129.53;;;11.06;72.03
65175;BME280;51761;42.126;24.752;2023-02-28T00:10:10;100126.28;;;11.11;72.34
65175;BME280;51761;42.126;24.752;2023-02-28T00:12:37;100133.06;;;11.10;72.02
65175;BME280;51761;42.126;24.752;2023-02-28T00:15:06;100150.44;;;11.28;71.65
65175;BME280;51761;42.126;24.752;2023-02-28T00:17:32;100128.16;;;11.21;71.21
65175;BME280;51761;42.126;24.752;2023-02-28T00:19:57;100147.91;;;11.41;70.94
65175;BME280;51761;42.126;24.752;2023-02-28T00:22:36;100147.13;;;11.40;71.06
65175;BME280;51761;42.126;24.752;2023-02-28T00:25:01;100153.44;;;11.48;70.61
65175;BME280;51761;42.126;24.752;2023-02-28T00:27:27;100131.22;;;11.34;70.79
65175;BME280;51761;42.126;24.752;2023-02-28T00:29:53;100145.47;;;11.46;70.85
65175;BME280;51761;42.126;24.752;2023-02-28T00:32:19;100147.81;;;11.51;70.42
65175;BME280;51761;42.126;24.752;2023-02-28T00:34:45;100138.97;;;11.56;70.54
65175;BME280;51761;42.126;24.752;2023-02-28T00:37:11;100116.66;;;11.49;70.88
65175;BME280;51761;42.126;24.752;2023-02-28T00:39:40;100098.53;;;11.27;70.77
65175;BME280;51761;42.126;24.752;2023-02-28T00:42:07;100133.16;;;11.40;70.82
65175;BME280;51761;42.126;24.752;2023-02-28T00:44:33;100128.88;;;11.29;71.33
65175;BME280;51761;42.126;24.752;2023-02-28T00:46:59;100146.44;;;11.29;71.15
65175;BME280;51761;42.126;24.752;2023-02-28T00:49:26;100127.78;;;11.19;71.37
65175;BME280;51761;42.126;24.752;2023-02-28T00:51:52;100131.34;;;11.20;71.23
65175;BME280;51761;42.126;24.752;2023-02-28T00:54:19;100134.78;;;11.38;71.61
65175;BME280;51761;42.126;24.752;2023-02-28T00:56:44;100139.50;;;11.44;71.34
65175;BME280;51761;42.126;24.752;2023-02-28T00:59:11;100126.50;;;11.27;71.30
65175;BME280;51761;42.126;24.752;2023-02-28T01:01:37;100148.28;;;11.43;71.22
65175;BME280;51761;42.126;24.752;2023-02-28T01:04:03;100126.56;;;11.20;71.31
65175;BME280;51761;42.126;24.752;2023-02-28T01:06:30;100137.66;;;11.31;71.21
65175;BME280;51761;42.126;24.752;2023-02-28T01:08:55;100165.53;;;11.38;71.05
65175;BME280;51761;42.126;24.752;2023-02-28T01:11:21;100133.94;;;11.04;71.87
65175;BME280;51761;42.126;24.752;2023-02-28T01:13:46;100142.16;;;11.18;71.90
65175;BME280;51761;42.126;24.752;2023-02-28T01:16:12;100166.34;;;11.38;71.38
65175;BME280;51761;42.126;24.752;2023-02-28T01:18:39;100168.75;;;11.36;71.36
65175;BME280;51761;42.126;24.752;2023-02-28T01:21:06;100168.41;;;11.31;71.06
65175;BME280;51761;42.126;24.752;2023-02-28T01:23:32;100173.25;;;11.27;71.83
65175;BME280;51761;42.126;24.752;2023-02-28T01:26:04;100162.56;;;11.15;71.82
65175;BME280;51761;42.126;24.752;2023-02-28T01:28:29;100174.19;;;11.13;72.09
65175;BME280;51761;42.126;24.752;2023-02-28T01:30:55;100142.00;;;10.95;72.72
65175;BME280;51761;42.126;24.752;2023-02-28T01:33:20;100155.75;;;11.16;72.26
65175;BME280;51761;42.126;24.752;2023-02-28T01:35:46;100184.84;;;11.25;71.66
65175;BME280;51761;42.126;24.752;2023-02-28T01:38:11;100161.06;;;11.03;71.81
65175;BME280;51761;42.126;24.752;2023-02-28T01:40:36;100173.47;;;11.02;72.04
65175;BME280;51761;42.126;24.752;2023-02-28T01:43:02;100191.81;;;11.03;72.20
65175;BME280;51761;42.126;24.752;2023-02-28T01:45:29;100205.53;;;10.88;72.91
65175;BME280;51761;42.126;24.752;2023-02-28T01:48:02;100208.91;;;10.62;73.26
65175;BME280;51761;42.126;24.752;2023-02-28T01:50:32;100195.22;;;10.16;72.61
65175;BME280;51761;42.126;24.752;2023-02-28T01:53:02;100231.16;;;9.90;73.28
65175;BME280;51761;42.126;24.752;2023-02-28T01:55:30;100200.59;;;9.55;74.03
65175;BME280;51761;42.126;24.752;2023-02-28T01:57:58;100203.38;;;9.55;74.57
65175;BME280;51761;42.126;24.752;2023-02-28T02:00:26;100232.06;;;9.48;75.04
65175;BME280;51761;42.126;24.752;2023-02-28T02:02:56;100217.00;;;9.22;75.71
65175;BME280;51761;42.126;24.752;2023-02-28T02:05:25;100228.91;;;9.29;76.17
65175;BME280;51761;42.126;24.752;2023-02-28T02:07:54;100210.59;;;9.07;76.91
65175;BME280;51761;42.126;24.752;2023-02-28T02:10:33;100251.22;;;9.33;76.70
65175;BME280;51761;42.126;24.752;2023-02-28T02:18:36;100251.63;;;9.28;77.15
65175;BME280;51761;42.126;24.752;2023-02-28T02:37:33;100227.31;;;9.00;77.87
65175;BME280;51761;42.126;24.752;2023-02-28T02:45:22;100252.81;;;9.16;78.79
65175;BME280;51761;42.126;24.752;2023-02-28T02:47:49;100255.19;;;9.28;78.56
65175;BME280;51761;42.126;24.752;2023-02-28T02:50:21;100265.53;;;9.21;78.60
65175;BME280;51761;42.126;24.752;2023-02-28T02:52:52;100253.22;;;9.11;79.02
65175;BME280;51761;42.126;24.752;2023-02-28T02:55:20;100280.69;;;9.23;79.31
65175;BME280;51761;42.126;24.752;2023-02-28T02:57:51;100265.13;;;9.29;79.83
65175;BME280;51761;42.126;24.752;2023-02-28T03:00:21;100273.91;;;9.38;80.76
65175;BME280;51761;42.126;24.752;2023-02-28T03:02:49;100283.84;;;9.46;81.31
65175;BME280;51761;42.126;24.752;2023-02-28T03:05:25;100275.13;;;9.37;82.36
65175;BME280;51761;42.126;24.752;2023-02-28T03:07:51;100291.81;;;9.51;83.31
65175;BME280;51761;42.126;24.752;2023-02-28T03:13:16;100297.00;;;9.56;83.83
65175;BME280;51761;42.126;24.752;2023-02-28T03:16:16;100304.97;;;9.50;83.95
65175;BME280;51761;42.126;24.752;2023-02-28T03:26:44;100301.41;;;9.36;85.68
65175;BME280;51761;42.126;24.752;2023-02-28T03:29:35;100324.09;;;9.38;86.94
65175;BME280;51761;42.126;24.752;2023-02-28T03:32:07;100322.88;;;9.36;87.08
65175;BME280;51761;42.126;24.752;2023-02-28T03:34:58;100316.91;;;9.30;87.89
65175;BME280;51761;42.126;24.752;2023-02-28T03:37:26;100316.53;;;9.42;87.68
65175;BME280;51761;42.126;24.752;2023-02-28T03:40:04;100318.91;;;9.37;88.61
65175;BME280;51761;42.126;24.752;2023-02-28T03:42:35;100315.72;;;9.41;88.52
65175;BME280;51761;42.126;24.752;2023-02-28T03:45:18;100303.38;;;9.29;89.41
65175;BME280;51761;42.126;24.752;2023-02-28T03:47:53;100318.09;;;9.39;89.45
65175;BME280;51761;42.126;24.752;2023-02-28T03:50:36;100323.31;;;9.41;89.99
65175;BME280;51761;42.126;24.752;2023-02-28T03:58:41;100341.59;;;9.32;91.00
65175;BME280;51761;42.126;24.752;2023-02-28T04:01:10;100329.25;;;9.26;91.13
65175;BME280;51761;42.126;24.752;2023-02-28T04:03:38;100344.78;;;9.30;90.76
65175;BME280;51761;42.126;24.752;2023-02-28T04:06:07;100340.00;;;9.20;91.13
65175;BME280;51761;42.126;24.752;2023-02-28T04:08:38;100348.38;;;9.27;90.80
65175;BME280;51761;42.126;24.752;2023-02-28T04:11:06;100355.13;;;9.26;90.50
65175;BME280;51761;42.126;24.752;2023-02-28T04:13:36;100356.31;;;9.25;90.34
65175;BME280;51761;42.126;24.752;2023-02-28T04:16:06;100362.31;;;9.31;89.85
65175;BME280;51761;42.126;24.752;2023-02-28T04:18:40;100371.47;;;9.28;89.84
65175;BME280;51761;42.126;24.752;2023-02-28T04:21:06;100357.09;;;9.19;89.55
65175;BME280;51761;42.126;24.752;2023-02-28T04:23:32;100372.25;;;9.21;89.72
65175;BME280;51761;42.126;24.752;2023-02-28T04:25:58;100379.41;;;9.29;89.43
65175;BME280;51761;42.126;24.752;2023-02-28T04:28:23;100365.47;;;9.29;89.47
65175;BME280;51761;42.126;24.752;2023-02-28T04:31:00;100341.19;;;9.16;89.25
65175;BME280;51761;42.126;24.752;2023-02-28T04:33:26;100359.50;;;9.34;88.91
65175;BME280;51761;42.126;24.752;2023-02-28T04:36:03;100362.69;;;9.29;89.01
65175;BME280;51761;42.126;24.752;2023-02-28T04:38:32;100343.16;;;9.19;88.83
65175;BME280;51761;42.126;24.752;2023-02-28T04:40:59;100372.69;;;9.37;88.38
65175;BME280;51761;42.126;24.752;2023-02-28T04:43:26;100363.09;;;9.31;88.90
65175;BME280;51761;42.126;24.752;2023-02-28T04:45:52;100337.22;;;9.34;88.01
65175;BME280;51761;42.126;24.752;2023-02-28T04:48:18;100374.66;;;9.37;88.65
65175;BME280;51761;42.126;24.752;2023-02-28T04:50:43;100374.66;;;9.43;87.70
65175;BME280;51761;42.126;24.752;2023-02-28T04:53:08;100367.91;;;9.48;87.26
65175;BME280;51761;42.126;24.752;2023-02-28T04:55:34;100353.13;;;9.30;87.82
65175;BME280;51761;42.126;24.752;2023-02-28T04:58:00;100358.75;;;9.44;87.17
65175;BME280;51761;42.126;24.752;2023-02-28T05:00:25;100375.06;;;9.38;87.43
65175;BME280;51761;42.126;24.752;2023-02-28T05:02:51;100389.78;;;9.36;87.46
65175;BME280;51761;42.126;24.752;2023-02-28T05:05:16;100393.78;;;9.41;87.11
65175;BME280;51761;42.126;24.752;2023-02-28T05:07:44;100400.56;;;9.37;87.11
65175;BME280;51761;42.126;24.752;2023-02-28T05:10:10;100399.34;;;9.35;87.33
65175;BME280;51761;42.126;24.752;2023-02-28T05:12:36;100400.56;;;9.37;87.33
65175;BME280;51761;42.126;24.752;2023-02-28T05:15:02;100403.75;;;9.39;87.03
65175;BME280;51761;42.126;24.752;2023-02-28T05:17:28;100404.53;;;9.46;86.27
65175;BME280;51761;42.126;24.752;2023-02-28T05:19:53;100378.22;;;9.30;86.46
65175;BME280;51761;42.126;24.752;2023-02-28T05:22:19;100402.13;;;9.31;86.79
65175;BME280;51761;42.126;24.752;2023-02-28T05:24:44;100406.91;;;9.38;86.92
65175;BME280;51761;42.126;24.752;2023-02-28T05:27:10;100411.28;;;9.32;86.91
65175;BME280;51761;42.126;24.752;2023-02-28T05:29:35;100423.25;;;9.36;86.48
65175;BME280;51761;42.126;24.752;2023-02-28T05:32:08;100420.06;;;9.34;86.82
65175;BME280;51761;42.126;24.752;2023-02-28T05:34:36;100436.38;;;9.35;86.29
65175;BME280;51761;42.126;24.752;2023-02-28T05:37:01;100437.59;;;9.38;86.27
65175;BME280;51761;42.126;24.752;2023-02-28T05:39:27;100441.56;;;9.30;86.30
65175;BME280;51761;42.126;24.752;2023-02-28T05:41:52;100434.78;;;9.24;86.72
65175;BME280;51761;42.126;24.752;2023-02-28T05:44:18;100439.16;;;9.28;86.81
65175;BME280;51761;42.126;24.752;2023-02-28T05:46:43;100415.25;;;9.13;86.49
65175;BME280;51761;42.126;24.752;2023-02-28T05:49:08;100437.97;;;9.26;86.53
65175;BME280;51761;42.126;24.752;2023-02-28T05:51:34;100434.78;;;9.27;86.68
65175;BME280;51761;42.126;24.752;2023-02-28T05:54:02;100420.81;;;9.20;86.20
65175;BME280;51761;42.126;24.752;2023-02-28T05:56:27;100425.59;;;9.23;86.05
65175;BME280;51761;42.126;24.752;2023-02-28T05:58:53;100442.34;;;9.34;86.19
65175;BME280;51761;42.126;24.752;2023-02-28T06:01:39;100449.97;;;9.50;85.45
65175;BME280;51761;42.126;24.752;2023-02-28T06:04:08;100433.19;;;9.33;85.29
65175;BME280;51761;42.126;24.752;2023-02-28T06:06:34;100455.13;;;9.52;85.10
65175;BME280;51761;42.126;24.752;2023-02-28T06:09:01;100430.41;;;9.43;84.85
65175;BME280;51761;42.126;24.752;2023-02-28T06:11:27;100465.91;;;9.67;84.62
65175;BME280;51761;42.126;24.752;2023-02-28T06:13:59;100468.69;;;9.64;84.49
65175;BME280;51761;42.126;24.752;2023-02-28T06:16:29;100470.31;;;9.72;84.34
65175;BME280;51761;42.126;24.752;2023-02-28T06:18:57;100492.63;;;9.65;84.33
65175;BME280;51761;42.126;24.752;2023-02-28T06:21:23;100461.50;;;9.56;84.45
65175;BME280;51761;42.126;24.752;2023-02-28T06:23:49;100471.88;;;9.59;84.54
65175;BME280;51761;42.126;24.752;2023-02-28T06:26:15;100468.31;;;9.65;84.25
65175;BME280;51761;42.126;24.752;2023-02-28T06:28:41;100465.91;;;9.57;84.78
65175;BME280;51761;42.126;24.752;2023-02-28T06:31:11;100449.56;;;9.52;84.51
65175;BME280;51761;42.126;24.752;2023-02-28T06:33:38;100476.66;;;9.65;84.68
65175;BME280;51761;42.126;24.752;2023-02-28T06:36:04;100452.75;;;9.47;85.08
65175;BME280;51761;42.126;24.752;2023-02-28T06:38:31;100472.28;;;9.61;84.59
65175;BME280;51761;42.126;24.752;2023-02-28T06:40:58;100474.66;;;9.59;84.80
65175;BME280;51761;42.126;24.752;2023-02-28T06:43:24;100453.13;;;9.38;84.64
65175;BME280;51761;42.126;24.752;2023-02-28T06:45:50;100471.88;;;9.55;84.67
65175;BME280;51761;42.126;24.752;2023-02-28T06:48:16;100455.88;;;9.35;84.81
65175;BME280;51761;42.126;24.752;2023-02-28T06:50:42;100464.28;;;9.49;85.22
65175;BME280;51761;42.126;24.752;2023-02-28T06:53:07;100475.88;;;9.65;84.55
65175;BME280;51761;42.126;24.752;2023-02-28T06:55:33;100485.41;;;9.57;84.51
65175;BME280;51761;42.126;24.752;2023-02-28T06:57:58;100475.84;;;9.44;84.83
65175;BME280;51761;42.126;24.752;2023-02-28T07:00:24;100484.63;;;9.56;84.82
65175;BME280;51761;42.126;24.752;2023-02-28T07:02:50;100483.81;;;9.56;84.96
65175;BME280;51761;42.126;24.752;2023-02-28T07:05:15;100482.66;;;9.71;84.31
65175;BME280;51761;42.126;24.752;2023-02-28T07:07:41;100486.66;;;9.91;83.36
65175;BME280;51761;42.126;24.752;2023-02-28T07:10:12;100490.25;;;9.98;82.96
65175;BME280;51761;42.126;24.752;2023-02-28T07:12:39;100491.88;;;10.03;82.77
65175;BME280;51761;42.126;24.752;2023-02-28T07:15:05;100489.91;;;10.10;81.95
65175;BME280;51761;42.126;24.752;2023-02-28T07:17:31;100489.47;;;9.98;82.37
65175;BME280;51761;42.126;24.752;2023-02-28T07:19:57;100492.28;;;10.01;82.35
65175;BME280;51761;42.126;24.752;2023-02-28T07:22:22;100485.13;;;10.07;82.01
65175;BME280;51761;42.126;24.752;2023-02-28T07:24:48;100485.50;;;10.13;81.54
65175;BME280;51761;42.126;24.752;2023-02-28T07:27:13;100479.13;;;10.09;81.39
65175;BME280;51761;42.126;24.752;2023-02-28T07:29:52;100478.28;;;9.87;81.77
65175;BME280;51761;42.126;24.752;2023-02-28T07:32:18;100497.44;;;9.96;82.23
65175;BME280;51761;42.126;24.752;2023-02-28T07:34:44;100495.84;;;9.95;82.09
65175;BME280;51761;42.126;24.752;2023-02-28T07:37:10;100510.59;;;9.99;82.38
65175;BME280;51761;42.126;24.752;2023-02-28T07:39:35;100511.38;;;9.85;82.95
65175;BME280;51761;42.126;24.752;2023-02-28T07:42:04;100501.41;;;9.88;82.98
65175;BME280;51761;42.126;24.752;2023-02-28T07:44:31;100506.19;;;9.70;83.37
65175;BME280;51761;42.126;24.752;2023-02-28T07:46:57;100487.84;;;9.83;82.99
65175;BME280;51761;42.126;24.752;2023-02-28T07:49:23;100502.25;;;10.09;82.29
65175;BME280;51761;42.126;24.752;2023-02-28T07:51:48;100497.06;;;10.15;81.84
65175;BME280;51761;42.126;24.752;2023-02-28T07:54:14;100510.25;;;10.25;81.15
65175;BME280;51761;42.126;24.752;2023-02-28T07:56:39;100488.28;;;10.13;81.05
65175;BME280;51761;42.126;24.752;2023-02-28T07:59:05;100495.81;;;9.88;81.99
65175;BME280;51761;42.126;24.752;2023-02-28T08:01:30;100516.59;;;10.08;86.85
65175;BME280;51761;42.126;24.752;2023-02-28T08:03:56;100512.63;;;10.02;84.19
65175;BME280;51761;42.126;24.752;2023-02-28T08:06:23;100507.44;;;10.11;83.28
65175;BME280;51761;42.126;24.752;2023-02-28T08:08:49;100519.78;;;10.10;83.16
65175;BME280;51761;42.126;24.752;2023-02-28T08:11:16;100501.03;;;10.03;84.94
65175;BME280;51761;42.126;24.752;2023-02-28T08:13:42;100519.78;;;10.06;82.77
65175;BME280;51761;42.126;24.752;2023-02-28T08:16:09;100512.63;;;10.23;81.86
65175;BME280;51761;42.126;24.752;2023-02-28T08:18:35;100516.59;;;10.36;83.50
65175;BME280;51761;42.126;24.752;2023-02-28T08:21:09;100499.88;;;10.22;81.71
65175;BME280;51761;42.126;24.752;2023-02-28T08:23:34;100505.84;;;10.31;81.03
65175;BME280;51761;42.126;24.752;2023-02-28T08:26:00;100498.66;;;10.26;80.82
65175;BME280;51761;42.126;24.752;2023-02-28T08:28:26;100509.41;;;10.42;80.67
65175;BME280;51761;42.126;24.752;2023-02-28T08:30:51;100512.56;;;10.65;80.03
65175;BME280;51761;42.126;24.752;2023-02-28T08:33:17;100481.47;;;10.66;79.09
65175;BME280;51761;42.126;24.752;2023-02-28T08:35:42;100489.81;;;10.73;78.49
65175;BME280;51761;42.126;24.752;2023-02-28T08:38:07;100513.31;;;10.93;78.27
65175;BME280;51761;42.126;24.752;2023-02-28T08:40:33;100510.09;;;10.95;77.92
65175;BME280;51761;42.126;24.752;2023-02-28T08:42:58;100519.75;;;10.62;78.98
65175;BME280;51761;42.126;24.752;2023-02-28T08:45:25;100505.03;;;10.44;79.88
65175;BME280;51761;42.126;24.752;2023-02-28T08:47:51;100523.78;;;10.51;79.69
65175;BME280;51761;42.126;24.752;2023-02-28T08:50:17;100524.19;;;10.53;79.84
65175;BME280;51761;42.126;24.752;2023-02-28T08:52:43;100527.75;;;10.60;79.71
65175;BME280;51761;42.126;24.752;2023-02-28T08:55:09;100525.34;;;10.62;79.54
65175;BME280;51761;42.126;24.752;2023-02-28T08:57:35;100511.38;;;10.55;79.60
65175;BME280;51761;42.126;24.752;2023-02-28T09:00:02;100515.75;;;10.63;78.84
65175;BME280;51761;42.126;24.752;2023-02-28T09:02:31;100533.31;;;10.64;79.39
65175;BME280;51761;42.126;24.752;2023-02-28T09:04:57;100522.16;;;10.64;79.35
65175;BME280;51761;42.126;24.752;2023-02-28T09:07:24;100516.56;;;10.60;79.58
65175;BME280;51761;42.126;24.752;2023-02-28T09:09:49;100508.56;;;10.76;78.39
65175;BME280;51761;42.126;24.752;2023-02-28T09:12:26;100506.97;;;10.79;78.12
65175;BME280;51761;42.126;24.752;2023-02-28T09:14:52;100522.50;;;10.87;78.23
65175;BME280;51761;42.126;24.752;2023-02-28T09:17:19;100532.50;;;10.88;78.18
65175;BME280;51761;42.126;24.752;2023-02-28T09:19:44;100504.63;;;10.49;78.85
65175;BME280;51761;42.126;24.752;2023-02-28T09:22:12;100514.16;;;10.62;78.85
65175;BME280;51761;42.126;24.752;2023-02-28T09:24:38;100499.03;;;10.56;79.11
65175;BME280;51761;42.126;24.752;2023-02-28T09:27:04;100515.75;;;10.74;79.06
65175;BME280;51761;42.126;24.752;2023-02-28T09:29:32;100507.75;;;10.76;78.46
65175;BME280;51761;42.126;24.752;2023-02-28T09:31:58;100493.78;;;10.79;77.98
65175;BME280;51761;42.126;24.752;2023-02-28T09:34:24;100485.75;;;10.92;77.22
65175;BME280;51761;42.126;24.752;2023-02-28T09:36:50;100502.06;;;11.03;77.04
65175;BME280;51761;42.126;24.752;2023-02-28T09:39:21;100507.63;;;11.17;76.91
65175;BME280;51761;42.126;24.752;2023-02-28T09:41:51;100496.47;;;11.10;76.96
65175;BME280;51761;42.126;24.752;2023-02-28T09:44:30;100506.56;;;10.84;78.36
65175;BME280;51761;42.126;24.752;2023-02-28T09:49:38;100513.69;;;10.98;77.57
65175;BME280;51761;42.126;24.752;2023-02-28T09:52:10;100511.34;;;10.87;78.16
65175;BME280;51761;42.126;24.752;2023-02-28T09:54:37;100496.59;;;10.72;78.37
65175;BME280;51761;42.126;24.752;2023-02-28T10:07:37;100448.97;;;11.03;76.72
65175;BME280;51761;42.126;24.752;2023-02-28T10:12:57;100481.72;;;11.06;77.27
65175;BME280;51761;42.126;24.752;2023-02-28T10:15:27;100481.66;;;11.17;76.99
65175;BME280;51761;42.126;24.752;2023-02-28T10:18:02;100455.75;;;11.02;77.41
65175;BME280;51761;42.126;24.752;2023-02-28T10:20:33;100476.44;;;11.26;76.86
65175;BME280;51761;42.126;24.752;2023-02-28T10:25:34;100465.25;;;11.19;77.06
65175;BME280;51761;42.126;24.752;2023-02-28T10:28:08;100467.28;;;11.22;76.78
65175;BME280;51761;42.126;24.752;2023-02-28T10:30:36;100448.97;;;11.10;76.90
65175;BME280;51761;42.126;24.752;2023-02-28T10:33:03;100471.72;;;11.09;77.30
65175;BME280;51761;42.126;24.752;2023-02-28T10:35:29;100458.19;;;10.94;77.56
65175;BME280;51761;42.126;24.752;2023-02-28T10:37:59;100464.19;;;10.96;77.96
65175;BME280;51761;42.126;24.752;2023-02-28T10:40:34;100469.00;;;10.95;77.97
65175;BME280;51761;42.126;24.752;2023-02-28T10:43:03;100463.78;;;10.97;77.81
65175;BME280;51761;42.126;24.752;2023-02-28T10:45:31;100475.88;;;10.63;78.91
65175;BME280;51761;42.126;24.752;2023-02-28T10:48:01;100471.47;;;10.62;79.73
65175;BME280;51761;42.126;24.752;2023-02-28T10:56:03;100462.75;;;10.42;80.43
65175;BME280;51761;42.126;24.752;2023-02-28T10:58:54;100458.31;;;10.55;79.86
65175;BME280;51761;42.126;24.752;2023-02-28T11:01:42;100451.56;;;10.46;80.38
65175;BME280;51761;42.126;24.752;2023-02-28T11:07:21;100451.16;;;10.44;80.82
65175;BME280;51761;42.126;24.752;2023-02-28T11:09:52;100451.22;;;10.23;81.19
65175;BME280;51761;42.126;24.752;2023-02-28T11:12:38;100438.84;;;10.20;81.42
65175;BME280;51761;42.126;24.752;2023-02-28T11:15:28;100446.84;;;10.08;81.97
65175;BME280;51761;42.126;24.752;2023-02-28T11:18:01;100432.09;;;10.04;82.66
65175;BME280;51761;42.126;24.752;2023-02-28T11:20:30;100446.00;;;10.00;82.74
65175;BME280;51761;42.126;24.752;2023-02-28T11:22:57;100430.06;;;9.94;82.88
65175;BME280;51761;42.126;24.752;2023-02-28T11:25:28;100446.41;;;10.13;82.87
65175;BME280;51761;42.126;24.752;2023-02-28T11:28:01;100432.88;;;10.04;83.13
65175;BME280;51761;42.126;24.752;2023-02-28T11:30:37;100441.63;;;9.92;83.85
65175;BME280;51761;42.126;24.752;2023-02-28T11:33:23;100437.22;;;9.70;85.90
65175;BME280;51761;42.126;24.752;2023-02-28T11:35:52;100435.66;;;9.73;86.22
65175;BME280;51761;42.126;24.752;2023-02-28T11:38:20;100440.03;;;9.63;86.88
65175;BME280;51761;42.126;24.752;2023-02-28T11:46:33;100439.19;;;9.42;89.73
65175;BME280;51761;42.126;24.752;2023-02-28T11:52:34;100441.94;;;9.28;93.02
65175;BME280;51761;42.126;24.752;2023-02-28T12:06:47;100421.94;;;8.98;99.05
65175;BME280;51761;42.126;24.752;2023-02-28T12:09:35;100422.78;;;9.09;98.81
65175;BME280;51761;42.126;24.752;2023-02-28T12:15:00;100420.38;;;9.04;98.46
65175;BME280;51761;42.126;24.752;2023-02-28T12:17:55;100406.78;;;8.85;98.44
65175;BME280;51761;42.126;24.752;2023-02-28T12:20:38;100415.53;;;8.80;99.01
65175;BME280;51761;42.126;24.752;2023-02-28T12:28:43;100416.78;;;8.97;98.69
65175;BME280;51761;42.126;24.752;2023-02-28T12:33:51;100399.25;;;8.89;100.00
65175;BME280;51761;42.126;24.752;2023-02-28T12:36:19;100392.84;;;8.89;99.65
65175;BME280;51761;42.126;24.752;2023-02-28T12:38:53;100409.22;;;9.01;100.00
65175;BME280;51761;42.126;24.752;2023-02-28T12:44:15;100397.28;;;9.00;100.00
65175;BME280;51761;42.126;24.752;2023-02-28T12:46:50;100400.06;;;9.07;100.00
65175;BME280;51761;42.126;24.752;2023-02-28T12:52:05;100389.72;;;9.01;100.00
65175;BME280;51761;42.126;24.752;2023-02-28T12:54:47;100376.56;;;8.87;100.00
65175;BME280;51761;42.126;24.752;2023-02-28T12:57:29;100401.25;;;9.06;100.00
65175;BME280;51761;42.126;24.752;2023-02-28T13:00:08;100400.09;;;9.04;99.26
65175;BME280;51761;42.126;24.752;2023-02-28T13:08:47;100400.06;;;9.00;100.00
65175;BME280;51761;42.126;24.752;2023-02-28T13:14:20;100391.72;;;8.97;100.00
65175;BME280;51761;42.126;24.752;2023-02-28T13:19:30;100392.06;;;8.92;100.00
65175;BME280;51761;42.126;24.752;2023-02-28T13:21:57;100393.69;;;9.00;100.00
65175;BME280;51761;42.126;24.752;2023-02-28T13:24:49;100400.41;;;8.85;100.00
65175;BME280;51761;42.126;24.752;2023-02-28T13:29:42;100368.47;;;8.58;100.00
65175;BME280;51761;42.126;24.752;2023-02-28T13:40:28;100383.69;;;8.78;100.00
65175;BME280;51761;42.126;24.752;2023-02-28T13:42:54;100372.47;;;8.60;100.00
65175;BME280;51761;42.126;24.752;2023-02-28T13:45:25;100392.00;;;8.71;100.00
65175;BME280;51761;42.126;24.752;2023-02-28T13:47:52;100369.66;;;8.57;100.00
65175;BME280;51761;42.126;24.752;2023-02-28T13:58:42;100381.63;;;8.64;100.00
65175;BME280;51761;42.126;24.752;2023-02-28T14:04:31;100379.66;;;8.68;100.00
65175;BME280;51761;42.126;24.752;2023-02-28T14:07:03;100363.66;;;8.48;100.00
65175;BME280;51761;42.126;24.752;2023-02-28T14:09:41;100385.25;;;8.72;100.00
65175;BME280;51761;42.126;24.752;2023-02-28T14:18:20;100394.41;;;8.76;100.00
65175;BME280;51761;42.126;24.752;2023-02-28T14:20:47;100406.38;;;8.83;100.00
65175;BME280;51761;42.126;24.752;2023-02-28T14:23:39;100409.56;;;8.85;100.00
65175;BME280;51761;42.126;24.752;2023-02-28T14:28:48;100403.53;;;8.69;100.00
65175;BME280;51761;42.126;24.752;2023-02-28T14:31:29;100400.78;;;8.76;100.00
65175;BME280;51761;42.126;24.752;2023-02-28T14:36:42;100398.75;;;8.66;100.00
65175;BME280;51761;42.126;24.752;2023-02-28T14:39:17;100399.56;;;8.70;100.00
65175;BME280;51761;42.126;24.752;2023-02-28T14:41:45;100374.03;;;8.51;100.00
65175;BME280;51761;42.126;24.752;2023-02-28T14:44:15;100395.97;;;8.66;100.00
65175;BME280;51761;42.126;24.752;2023-02-28T14:46:42;100375.66;;;8.55;100.00
65175;BME280;51761;42.126;24.752;2023-02-28T14:49:28;100404.38;;;8.77;100.00
65175;BME280;51761;42.126;24.752;2023-02-28T14:52:05;100375.66;;;8.55;100.00
65175;BME280;51761;42.126;24.752;2023-02-28T14:54:35;100401.53;;;8.66;100.00
65175;BME280;51761;42.126;24.752;2023-02-28T14:57:01;100407.47;;;8.61;100.00
65175;BME280;51761;42.126;24.752;2023-02-28T14:59:29;100387.09;;;8.43;100.00
65175;BME280;51761;42.126;24.752;2023-02-28T15:02:15;100415.03;;;8.57;100.00
65175;BME280;51761;42.126;24.752;2023-02-28T15:04:41;100419.38;;;8.55;100.00
65175;BME280;51761;42.126;24.752;2023-02-28T15:07:13;100419.41;;;8.62;100.00
65175;BME280;51761;42.126;24.752;2023-02-28T15:09:40;100424.19;;;8.65;100.00
65175;BME280;51761;42.126;24.752;2023-02-28T15:12:05;100423.38;;;8.61;100.00
65175;BME280;51761;42.126;24.752;2023-02-28T15:14:31;100403.88;;;8.61;100.00
65175;BME280;51761;42.126;24.752;2023-02-28T15:17:00;100427.03;;;8.75;100.00
65175;BME280;51761;42.126;24.752;2023-02-28T15:19:32;100434.97;;;8.70;100.00
65175;BME280;51761;42.126;24.752;2023-02-28T15:22:07;100441.31;;;8.70;100.00
65175;BME280;51761;42.126;24.752;2023-02-28T15:24:41;100417.00;;;8.57;100.00
65175;BME280;51761;42.126;24.752;2023-02-28T15:27:27;100439.72;;;8.66;100.00
65175;BME280;51761;42.126;24.752;2023-02-28T15:29:55;100436.56;;;8.74;100.00